Sereno, Pennsylvania
Current Conditions -  °F | °C
As of 12:33 PM on Wednesday 26 Nov 2014 (Local Time) from KIPT Reporting Station
Light Snow Light Snow  
Wind Chill: 33°   Ceiling: 1000
Heat Index: 33°   Visibility: 0.75mi
Dew Point: 31°   Wind: 3mph
Humidity: 92%   Direction: 250°WSW
Pressure: 30.05"   Gusts: NA
Location:  41.1401°N, 76.5245°W
Report Text: KIPT 261733Z 25003KT 3/4SM -SN BR SCT005 OVC010 01/M01 A3005 RMK AO2 P0003 T00061006
Loading
Personal Weather Stations






























Interactive Weather Map New forecast layout! Learn more

10-Day Weather Forecast

Advertisements
Track Severe Weather on mobile